Time;durP1;ratioP1;P1;durP2;ratioP2;P2;SDS_P1;SDS_P2;PMS_P1;PMS_P2;Temp;Humidity;BMP_temperature;BMP_pressure;BME280_temperature;BME280_humidity;BME280_pressure;Samples;Min_cycle;Max_cycle;Signal;HPM_P1;HPM_P2
2022/07/10 00:02:16;;;;;;;9.02;1.90;;;;;;;;;;5060292;28;20423;-77
2022/07/10 00:04:42;;;;;;;6.88;2.10;;;;;;;;;;5059717;28;20473;-77
2022/07/10 00:07:09;;;;;;;5.60;1.90;;;;;;;;;;5059816;28;20427;-77
2022/07/10 00:09:35;;;;;;;6.43;2.33;;;;;;;;;;5059232;28;20838;-76
2022/07/10 00:12:05;;;;;;;6.00;1.58;;;;;;;;;;5059800;28;20436;-78
2022/07/10 00:14:31;;;;;;;7.40;1.90;;;;;;;;;;5057779;28;20425;-77
2022/07/10 00:16:57;;;;;;;4.65;1.60;;;;;;;;;;5059216;28;20783;-78
2022/07/10 00:19:24;;;;;;;6.80;1.60;;;;;;;;;;5057262;28;20949;-77
2022/07/10 00:21:50;;;;;;;5.15;1.55;;;;;;;;;;5059033;28;20433;-78
2022/07/10 00:24:16;;;;;;;6.57;1.75;;;;;;;;;;5058810;28;20451;-78
2022/07/10 00:26:42;;;;;;;3.75;1.58;;;;;;;;;;5071732;22;20787;-74
2022/07/10 00:29:10;;;;;;;7.00;1.77;;;;;;;;;;5054794;28;20431;-74
2022/07/10 00:31:36;;;;;;;5.25;1.83;;;;;;;;;;5050654;28;20437;-74
2022/07/10 00:34:03;;;;;;;3.90;1.67;;;;;;;;;;5055770;28;20769;-74
2022/07/10 00:36:29;;;;;;;6.83;1.80;;;;;;;;;;5056303;28;20431;-74
2022/07/10 00:38:56;;;;;;;7.03;1.80;;;;;;;;;;5056264;28;20431;-74
2022/07/10 00:41:22;;;;;;;4.97;1.50;;;;;;;;;;5055841;28;20441;-74
2022/07/10 00:43:55;;;;;;;7.55;1.80;;;;;;;;;;5054566;28;20432;-74
2022/07/10 00:46:23;;;;;;;6.97;1.70;;;;;;;;;;5054055;28;20432;-74
2022/07/10 00:48:49;;;;;;;6.03;1.30;;;;;;;;;;5053359;28;20439;-74
2022/07/10 00:51:16;;;;;;;5.85;1.83;;;;;;;;;;5055803;28;20445;-74
2022/07/10 00:53:43;;;;;;;5.50;1.80;;;;;;;;;;5055313;28;20425;-74
2022/07/10 00:56:10;;;;;;;6.15;1.90;;;;;;;;;;5057164;28;20415;-74
2022/07/10 00:58:36;;;;;;;6.90;1.80;;;;;;;;;;5055854;28;20774;-74
2022/07/10 01:01:03;;;;;;;5.38;1.40;;;;;;;;;;5053021;28;20427;-74
2022/07/10 01:03:30;;;;;;;6.47;1.70;;;;;;;;;;5053587;28;20433;-74
2022/07/10 01:05:57;;;;;;;4.22;1.60;;;;;;;;;;5051346;28;20421;-74
2022/07/10 01:08:23;;;;;;;7.00;1.87;;;;;;;;;;5055970;28;20451;-74
2022/07/10 01:10:50;;;;;;;6.85;1.60;;;;;;;;;;5053735;28;20917;-74
2022/07/10 01:13:16;;;;;;;4.73;1.43;;;;;;;;;;5054055;28;20429;-74
2022/07/10 01:15:42;;;;;;;11.50;2.10;;;;;;;;;;5055374;28;20429;-74
2022/07/10 01:18:09;;;;;;;5.75;1.77;;;;;;;;;;5057102;28;20921;-74
2022/07/10 01:20:37;;;;;;;3.85;1.70;;;;;;;;;;5054613;28;20433;-74
2022/07/10 01:23:05;;;;;;;6.38;1.80;;;;;;;;;;5053490;28;20439;-74
2022/07/10 01:25:31;;;;;;;5.90;1.70;;;;;;;;;;5056612;28;20416;-75
2022/07/10 01:27:58;;;;;;;8.25;2.00;;;;;;;;;;5052355;28;20511;-74
2022/07/10 01:30:24;;;;;;;7.40;1.70;;;;;;;;;;5055526;28;20428;-74
2022/07/10 01:32:52;;;;;;;4.68;1.60;;;;;;;;;;5053747;28;20436;-74
2022/07/10 01:35:18;;;;;;;7.50;1.70;;;;;;;;;;5054110;28;20955;-74
2022/07/10 01:37:45;;;;;;;5.70;1.63;;;;;;;;;;5052771;28;20793;-74
2022/07/10 01:40:13;;;;;;;7.07;1.60;;;;;;;;;;5053193;28;20418;-74
2022/07/10 01:42:39;;;;;;;6.45;1.85;;;;;;;;;;5054888;28;20463;-74
2022/07/10 01:45:07;;;;;;;5.83;1.80;;;;;;;;;;5052174;28;20408;-73
2022/07/10 01:47:33;;;;;;;7.90;1.92;;;;;;;;;;5052887;28;20911;-73
2022/07/10 01:49:59;;;;;;;12.48;2.30;;;;;;;;;;5054119;28;20424;-73
2022/07/10 01:52:26;;;;;;;9.00;2.30;;;;;;;;;;5056143;28;20425;-73
2022/07/10 01:54:52;;;;;;;8.50;2.25;;;;;;;;;;5056473;28;20408;-73
2022/07/10 01:57:20;;;;;;;6.13;1.80;;;;;;;;;;5054113;28;20425;-73
2022/07/10 01:59:46;;;;;;;7.20;1.90;;;;;;;;;;5053338;28;20437;-73
2022/07/10 02:02:12;;;;;;;7.72;2.20;;;;;;;;;;5054226;28;20433;-73
2022/07/10 02:04:40;;;;;;;9.00;2.70;;;;;;;;;;5051644;28;20432;-73
2022/07/10 02:07:07;;;;;;;7.90;1.77;;;;;;;;;;5052764;28;20427;-73
2022/07/10 02:09:33;;;;;;;9.15;2.10;;;;;;;;;;5054949;28;20916;-73
2022/07/10 02:11:59;;;;;;;8.85;2.10;;;;;;;;;;5055814;28;20431;-73
2022/07/10 02:14:27;;;;;;;7.05;1.95;;;;;;;;;;5053651;28;20494;-73
2022/07/10 02:16:54;;;;;;;6.67;2.30;;;;;;;;;;5052828;28;20429;-73
2022/07/10 02:19:20;;;;;;;5.75;1.80;;;;;;;;;;5055474;28;20432;-73
2022/07/10 02:21:46;;;;;;;8.38;1.90;;;;;;;;;;5052603;28;20429;-73
2022/07/10 02:24:13;;;;;;;9.55;2.40;;;;;;;;;;5056434;28;20954;-73
2022/07/10 02:26:39;;;;;;;8.88;2.10;;;;;;;;;;5054691;28;20435;-73
2022/07/10 02:29:06;;;;;;;7.90;1.90;;;;;;;;;;5057099;28;20511;-73
2022/07/10 02:31:34;;;;;;;4.20;1.90;;;;;;;;;;5052515;28;20425;-73
2022/07/10 02:34:00;;;;;;;8.50;1.90;;;;;;;;;;5050888;28;20532;-73
2022/07/10 02:36:27;;;;;;;8.90;2.47;;;;;;;;;;5051784;28;20425;-73
2022/07/10 02:38:53;;;;;;;8.45;2.40;;;;;;;;;;5053996;28;20437;-73
2022/07/10 02:41:19;;;;;;;10.20;3.20;;;;;;;;;;5055841;28;20436;-73
2022/07/10 02:43:46;;;;;;;7.63;2.42;;;;;;;;;;5054838;28;20427;-73
2022/07/10 02:46:12;;;;;;;8.48;2.40;;;;;;;;;;5052729;28;20434;-73
2022/07/10 02:48:40;;;;;;;7.70;2.30;;;;;;;;;;5051923;28;20783;-73
2022/07/10 02:51:06;;;;;;;7.50;2.30;;;;;;;;;;5054105;28;20947;-73
2022/07/10 02:53:32;;;;;;;6.63;2.10;;;;;;;;;;5056292;28;20439;-73
2022/07/10 02:55:58;;;;;;;10.32;2.35;;;;;;;;;;5057204;28;20761;-73
2022/07/10 02:58:25;;;;;;;9.60;2.20;;;;;;;;;;5057516;28;20436;-73
2022/07/10 03:00:51;;;;;;;7.90;2.00;;;;;;;;;;5056012;28;20431;-73
2022/07/10 03:03:18;;;;;;;6.20;2.00;;;;;;;;;;5057044;28;20429;-73
2022/07/10 03:05:45;;;;;;;4.90;2.00;;;;;;;;;;5056469;28;20421;-73
2022/07/10 03:08:12;;;;;;;7.28;2.30;;;;;;;;;;5054061;28;20425;-73
2022/07/10 03:10:38;;;;;;;9.07;2.40;;;;;;;;;;5059795;28;20424;-73
2022/07/10 03:13:05;;;;;;;11.27;2.50;;;;;;;;;;5056870;28;20442;-73
2022/07/10 03:15:31;;;;;;;10.00;2.85;;;;;;;;;;5056153;28;20431;-73
2022/07/10 03:17:57;;;;;;;4.50;2.00;;;;;;;;;;5053216;28;20424;-73
2022/07/10 03:20:24;;;;;;;8.23;2.20;;;;;;;;;;5055638;28;20421;-73
2022/07/10 03:22:51;;;;;;;12.30;2.50;;;;;;;;;;5054574;28;20438;-73
2022/07/10 03:25:18;;;;;;;7.60;2.40;;;;;;;;;;5056856;28;20758;-73
2022/07/10 03:27:44;;;;;;;5.70;2.10;;;;;;;;;;5057328;28;20433;-73
2022/07/10 03:30:11;;;;;;;9.07;3.10;;;;;;;;;;5055344;28;20423;-73
2022/07/10 03:32:37;;;;;;;8.90;2.20;;;;;;;;;;5056381;28;20438;-73
2022/07/10 03:35:04;;;;;;;7.43;2.40;;;;;;;;;;5055922;28;20425;-73
2022/07/10 03:37:30;;;;;;;10.03;3.00;;;;;;;;;;5055260;28;20963;-73
2022/07/10 03:39:57;;;;;;;7.05;2.60;;;;;;;;;;5056408;28;20422;-73
2022/07/10 03:42:24;;;;;;;8.55;2.60;;;;;;;;;;5058241;28;20417;-72
2022/07/10 03:44:50;;;;;;;6.82;2.60;;;;;;;;;;5054332;28;21064;-73
2022/07/10 03:47:16;;;;;;;6.97;2.58;;;;;;;;;;5056434;28;20435;-72
2022/07/10 03:49:43;;;;;;;7.43;2.50;;;;;;;;;;5058022;28;20775;-72
2022/07/10 03:52:09;;;;;;;6.55;2.00;;;;;;;;;;5057265;28;20440;-73
2022/07/10 03:54:35;;;;;;;6.20;2.40;;;;;;;;;;5053661;28;20454;-72
2022/07/10 03:59:47;;;;;;;10.05;2.90;;;;;;;;;;5054214;28;20491;-73
2022/07/10 04:02:13;;;;;;;9.93;2.22;;;;;;;;;;5055531;28;20433;-73
2022/07/10 04:04:40;;;;;;;8.30;2.67;;;;;;;;;;5051835;28;20433;-72
2022/07/10 04:07:06;;;;;;;6.53;2.30;;;;;;;;;;5051786;28;20943;-74
2022/07/10 04:09:33;;;;;;;8.70;2.40;;;;;;;;;;5052123;28;20916;-72
2022/07/10 04:11:59;;;;;;;10.68;3.00;;;;;;;;;;5058552;28;20807;-73
2022/07/10 04:14:27;;;;;;;7.95;2.50;;;;;;;;;;5058956;28;20926;-73
2022/07/10 04:16:53;;;;;;;9.57;2.90;;;;;;;;;;5056059;28;20802;-73
2022/07/10 04:19:21;;;;;;;7.65;2.95;;;;;;;;;;5054022;28;20427;-73
2022/07/10 04:21:47;;;;;;;9.48;3.28;;;;;;;;;;5054276;28;20421;-73
2022/07/10 04:24:13;;;;;;;8.82;2.70;;;;;;;;;;5055343;28;20432;-73
2022/07/10 04:26:40;;;;;;;11.48;3.45;;;;;;;;;;5054764;28;20868;-73
2022/07/10 04:29:06;;;;;;;9.38;2.75;;;;;;;;;;5052005;28;20423;-73
2022/07/10 04:31:34;;;;;;;9.30;2.80;;;;;;;;;;5057118;28;20455;-73
2022/07/10 04:34:00;;;;;;;10.88;3.00;;;;;;;;;;5056929;28;20429;-73
2022/07/10 04:36:26;;;;;;;8.95;2.70;;;;;;;;;;5053114;28;20427;-73
2022/07/10 04:38:53;;;;;;;10.25;3.25;;;;;;;;;;5052101;28;20454;-73
2022/07/10 04:41:19;;;;;;;8.23;3.10;;;;;;;;;;5054588;28;20428;-73
2022/07/10 04:43:45;;;;;;;8.57;2.70;;;;;;;;;;5055334;28;20427;-73
2022/07/10 04:46:12;;;;;;;6.82;2.85;;;;;;;;;;5055374;28;20420;-73
2022/07/10 04:48:39;;;;;;;7.97;2.40;;;;;;;;;;5055849;28;20742;-72
2022/07/10 04:51:06;;;;;;;9.00;3.15;;;;;;;;;;5053197;28;20933;-73
2022/07/10 04:53:32;;;;;;;7.83;2.87;;;;;;;;;;5053988;28;20433;-72
2022/07/10 04:55:58;;;;;;;5.05;2.58;;;;;;;;;;5052231;28;20426;-73
2022/07/10 04:58:25;;;;;;;9.35;2.30;;;;;;;;;;5054199;28;20793;-73
2022/07/10 05:00:51;;;;;;;7.23;2.73;;;;;;;;;;5053615;28;20424;-73
2022/07/10 05:03:17;;;;;;;7.10;2.80;;;;;;;;;;5053675;28;20445;-73
2022/07/10 05:05:45;;;;;;;8.93;2.50;;;;;;;;;;5053917;28;21872;-73
2022/07/10 05:08:11;;;;;;;6.30;2.75;;;;;;;;;;5054636;28;20797;-73
2022/07/10 05:10:39;;;;;;;8.20;2.60;;;;;;;;;;5056352;28;20947;-73
2022/07/10 05:13:06;;;;;;;8.30;2.63;;;;;;;;;;5055595;28;20433;-73
2022/07/10 05:15:32;;;;;;;6.03;1.80;;;;;;;;;;5054475;28;20430;-73
2022/07/10 05:17:58;;;;;;;9.80;3.15;;;;;;;;;;5056138;28;20425;-72
2022/07/10 05:20:25;;;;;;;7.82;2.65;;;;;;;;;;5052741;28;20425;-73
2022/07/10 05:22:52;;;;;;;16.52;3.30;;;;;;;;;;5055127;28;20758;-73
2022/07/10 05:25:19;;;;;;;9.70;3.03;;;;;;;;;;5055718;28;20955;-73
2022/07/10 05:27:45;;;;;;;8.87;2.67;;;;;;;;;;5056103;28;20424;-72
2022/07/10 05:30:11;;;;;;;7.25;2.90;;;;;;;;;;5052047;28;20430;-73
2022/07/10 05:32:43;;;;;;;7.97;2.60;;;;;;;;;;5055622;28;20437;-73
2022/07/10 05:35:09;;;;;;;9.95;3.10;;;;;;;;;;5053659;28;20420;-73
2022/07/10 05:37:35;;;;;;;9.35;2.92;;;;;;;;;;5054854;28;20424;-73
2022/07/10 05:40:04;;;;;;;8.35;3.13;;;;;;;;;;5054555;28;20902;-73
2022/07/10 05:42:30;;;;;;;9.23;2.55;;;;;;;;;;5053970;28;20991;-73
2022/07/10 05:44:56;;;;;;;8.93;2.50;;;;;;;;;;5055706;28;20414;-73
2022/07/10 05:47:22;;;;;;;8.65;2.60;;;;;;;;;;5051745;28;20432;-73
2022/07/10 05:49:49;;;;;;;8.32;2.70;;;;;;;;;;5054451;28;20789;-73
2022/07/10 05:52:15;;;;;;;7.57;2.70;;;;;;;;;;5053424;28;20429;-72
2022/07/10 05:54:42;;;;;;;7.82;2.55;;;;;;;;;;5053084;28;20464;-73
2022/07/10 05:57:09;;;;;;;5.30;2.40;;;;;;;;;;5053541;28;20546;-73
2022/07/10 05:59:37;;;;;;;11.65;3.00;;;;;;;;;;5055183;28;20479;-73
2022/07/10 06:02:04;;;;;;;8.77;2.95;;;;;;;;;;5054484;28;20423;-73
2022/07/10 06:04:30;;;;;;;8.95;2.35;;;;;;;;;;5053859;28;20437;-73
2022/07/10 06:06:56;;;;;;;8.73;2.87;;;;;;;;;;5053545;28;20427;-73
2022/07/10 06:09:23;;;;;;;11.02;3.30;;;;;;;;;;5050687;28;20972;-73
2022/07/10 06:11:49;;;;;;;8.18;2.60;;;;;;;;;;5049599;28;20432;-73
2022/07/10 06:14:17;;;;;;;11.33;3.10;;;;;;;;;;5051232;28;20496;-73
2022/07/10 06:16:43;;;;;;;7.88;2.75;;;;;;;;;;5052489;28;20743;-73
2022/07/10 06:19:09;;;;;;;9.53;2.60;;;;;;;;;;5055314;28;20429;-73
2022/07/10 06:21:36;;;;;;;6.85;2.33;;;;;;;;;;5054634;28;20408;-73
2022/07/10 06:24:02;;;;;;;9.27;2.92;;;;;;;;;;5053922;28;20931;-73
2022/07/10 06:26:28;;;;;;;13.48;3.25;;;;;;;;;;5073255;22;20452;-78
2022/07/10 06:28:55;;;;;;;6.75;2.40;;;;;;;;;;5076410;28;20778;-77
2022/07/10 06:31:22;;;;;;;9.32;2.67;;;;;;;;;;5077818;28;20805;-78
2022/07/10 06:33:49;;;;;;;6.10;2.50;;;;;;;;;;5079444;28;20429;-78
2022/07/10 06:36:15;;;;;;;12.45;2.80;;;;;;;;;;5074480;28;20526;-77
2022/07/10 06:38:41;;;;;;;11.13;3.08;;;;;;;;;;5077237;28;21074;-77
2022/07/10 06:41:07;;;;;;;13.35;3.10;;;;;;;;;;5078222;28;20434;-76
2022/07/10 06:43:34;;;;;;;8.20;2.95;;;;;;;;;;5072158;28;20908;-79
2022/07/10 06:46:00;;;;;;;13.20;3.30;;;;;;;;;;5079804;28;20420;-78
2022/07/10 06:48:27;;;;;;;10.45;3.40;;;;;;;;;;5074515;28;20424;-80
2022/07/10 06:50:54;;;;;;;11.33;3.40;;;;;;;;;;5076494;28;20510;-76
2022/07/10 06:53:23;;;;;;;11.50;3.50;;;;;;;;;;5070539;28;20431;-78
2022/07/10 06:55:50;;;;;;;13.23;3.50;;;;;;;;;;5078271;28;20944;-78
2022/07/10 06:58:16;;;;;;;12.20;3.38;;;;;;;;;;5076220;28;20792;-78
2022/07/10 07:00:43;;;;;;;9.20;3.40;;;;;;;;;;5074806;28;20429;-77
2022/07/10 07:03:09;;;;;;;10.15;3.05;;;;;;;;;;5075657;28;20770;-78
2022/07/10 07:05:38;;;;;;;9.35;3.00;;;;;;;;;;5078838;28;20418;-78
2022/07/10 07:08:04;;;;;;;15.57;3.67;;;;;;;;;;5075446;28;20433;-78
2022/07/10 07:10:31;;;;;;;10.88;3.42;;;;;;;;;;5072342;28;20542;-78
2022/07/10 07:12:57;;;;;;;13.55;3.60;;;;;;;;;;5078497;28;20426;-77
2022/07/10 07:15:24;;;;;;;12.32;3.10;;;;;;;;;;5076594;28;20929;-77
2022/07/10 07:18:11;;;;;;;11.02;3.10;;;;;;;;;;5076137;28;20418;-77
2022/07/10 07:23:22;;;;;;;6.68;2.42;;;;;;;;;;5074934;28;20443;-75
2022/07/10 07:25:49;;;;;;;12.02;3.05;;;;;;;;;;5074180;28;20428;-78
2022/07/10 07:28:19;;;;;;;8.43;3.25;;;;;;;;;;5078177;28;20423;-79
2022/07/10 07:30:46;;;;;;;11.77;3.00;;;;;;;;;;5071059;28;20429;-79
2022/07/10 07:33:12;;;;;;;13.50;3.60;;;;;;;;;;5077939;28;20424;-79
2022/07/10 07:35:40;;;;;;;13.95;3.15;;;;;;;;;;5074225;28;20424;-78
2022/07/10 07:38:06;;;;;;;8.98;3.40;;;;;;;;;;5072707;28;20430;-78
2022/07/10 07:40:33;;;;;;;15.57;3.30;;;;;;;;;;5071711;28;20500;-78
2022/07/10 07:42:59;;;;;;;14.77;3.67;;;;;;;;;;5078986;28;20415;-77
2022/07/10 07:45:26;;;;;;;11.40;3.20;;;;;;;;;;5072548;28;20420;-77
2022/07/10 07:47:53;;;;;;;9.45;2.70;;;;;;;;;;5079230;28;20908;-79
2022/07/10 07:50:20;;;;;;;8.50;2.83;;;;;;;;;;5070590;28;20790;-77
2022/07/10 07:52:48;;;;;;;6.80;2.67;;;;;;;;;;5076677;28;20929;-79
2022/07/10 07:55:15;;;;;;;9.18;2.60;;;;;;;;;;5072484;28;20926;-77
2022/07/10 07:57:42;;;;;;;9.10;3.20;;;;;;;;;;5076401;28;20428;-78
2022/07/10 08:00:10;;;;;;;10.15;3.08;;;;;;;;;;5073804;28;20412;-78
2022/07/10 08:02:36;;;;;;;6.82;2.60;;;;;;;;;;5076028;28;20934;-77
2022/07/10 08:05:04;;;;;;;11.50;3.00;;;;;;;;;;5074926;28;20774;-79
2022/07/10 08:07:34;;;;;;;7.55;2.50;;;;;;;;;;5078725;28;20916;-77
2022/07/10 08:10:01;;;;;;;11.10;3.33;;;;;;;;;;5076762;28;20410;-79
2022/07/10 08:12:28;;;;;;;9.57;2.55;;;;;;;;;;5070044;28;20424;-77
2022/07/10 08:14:54;;;;;;;12.95;2.90;;;;;;;;;;5075614;28;20435;-77
2022/07/10 08:17:21;;;;;;;11.35;3.08;;;;;;;;;;5072804;28;20434;-77
2022/07/10 08:19:47;;;;;;;8.90;2.35;;;;;;;;;;5076244;28;20428;-77
2022/07/10 08:22:14;;;;;;;9.50;3.10;;;;;;;;;;5073379;28;20916;-77
2022/07/10 08:24:40;;;;;;;7.68;2.90;;;;;;;;;;5070983;28;20419;-77
2022/07/10 08:27:08;;;;;;;7.67;2.40;;;;;;;;;;5076025;28;20430;-79
2022/07/10 08:29:35;;;;;;;7.65;2.78;;;;;;;;;;5076021;28;20442;-77
2022/07/10 08:32:01;;;;;;;9.63;2.80;;;;;;;;;;5075333;28;20427;-79
2022/07/10 08:34:28;;;;;;;8.43;2.95;;;;;;;;;;5069238;28;20427;-78
2022/07/10 08:36:54;;;;;;;10.60;2.60;;;;;;;;;;5074716;28;20447;-80
2022/07/10 08:39:21;;;;;;;10.23;2.85;;;;;;;;;;5073647;28;20437;-79
2022/07/10 08:41:50;;;;;;;8.60;2.80;;;;;;;;;;5071483;28;20852;-79
2022/07/10 08:44:18;;;;;;;9.80;2.88;;;;;;;;;;5071536;28;20522;-78
2022/07/10 08:46:44;;;;;;;9.67;2.50;;;;;;;;;;5062202;28;20511;-77
2022/07/10 08:49:13;;;;;;;10.57;3.10;;;;;;;;;;5069354;28;20944;-78
2022/07/10 08:51:41;;;;;;;6.65;2.38;;;;;;;;;;5071315;28;20426;-78
2022/07/10 08:54:08;;;;;;;8.23;2.70;;;;;;;;;;5074136;28;20422;-78
2022/07/10 08:56:35;;;;;;;12.85;3.13;;;;;;;;;;5075801;28;20808;-78
2022/07/10 08:59:03;;;;;;;6.32;2.28;;;;;;;;;;5073137;28;20554;-79
2022/07/10 09:01:32;;;;;;;7.13;2.50;;;;;;;;;;5073788;28;20425;-76
2022/07/10 09:03:58;;;;;;;8.85;2.58;;;;;;;;;;5075209;28;20435;-77
2022/07/10 09:06:25;;;;;;;9.73;2.88;;;;;;;;;;5071418;28;20515;-77
2022/07/10 09:09:01;;;;;;;10.70;2.47;;;;;;;;;;5075431;28;20445;-77
2022/07/10 09:11:30;;;;;;;11.18;3.28;;;;;;;;;;5073765;28;20428;-77
2022/07/10 09:13:57;;;;;;;7.68;2.63;;;;;;;;;;5071633;28;20439;-77
2022/07/10 09:16:24;;;;;;;9.00;2.70;;;;;;;;;;5074661;28;20426;-78
2022/07/10 09:18:55;;;;;;;6.85;2.70;;;;;;;;;;5071895;28;20431;-77
2022/07/10 09:21:22;;;;;;;6.70;2.50;;;;;;;;;;5074330;28;20424;-79
2022/07/10 09:23:48;;;;;;;5.97;2.60;;;;;;;;;;5073163;28;20428;-79
2022/07/10 09:26:14;;;;;;;9.35;2.80;;;;;;;;;;5072333;28;20423;-79
2022/07/10 09:28:41;;;;;;;8.85;2.50;;;;;;;;;;5074864;28;20932;-79
2022/07/10 09:31:07;;;;;;;5.53;2.60;;;;;;;;;;5072936;28;20901;-78
2022/07/10 09:33:35;;;;;;;5.73;2.50;;;;;;;;;;5073945;28;20515;-79
2022/07/10 09:36:06;;;;;;;7.35;2.65;;;;;;;;;;5074755;28;20420;-79
2022/07/10 09:38:51;;;;;;;8.93;2.80;;;;;;;;;;5073002;28;20435;-79
2022/07/10 09:41:19;;;;;;;9.57;2.55;;;;;;;;;;5072581;28;20451;-79
2022/07/10 09:43:47;;;;;;;5.38;2.45;;;;;;;;;;5074594;28;20434;-77
2022/07/10 09:46:13;;;;;;;7.88;2.30;;;;;;;;;;5075689;28;20445;-78
2022/07/10 09:48:40;;;;;;;6.25;2.25;;;;;;;;;;5072981;28;20431;-77
2022/07/10 09:51:16;;;;;;;7.75;2.70;;;;;;;;;;5072307;28;20497;-77
2022/07/10 09:53:43;;;;;;;8.48;2.20;;;;;;;;;;5069553;28;20901;-77
2022/07/10 09:56:13;;;;;;;8.95;2.67;;;;;;;;;;5065586;28;20432;-79
2022/07/10 09:58:40;;;;;;;7.68;2.58;;;;;;;;;;5070623;28;20439;-77
2022/07/10 10:01:08;;;;;;;7.50;2.35;;;;;;;;;;5066733;28;20430;-77
2022/07/10 10:03:35;;;;;;;10.45;2.72;;;;;;;;;;5068013;28;20430;-79
2022/07/10 10:06:09;;;;;;;8.80;2.63;;;;;;;;;;5070347;28;20482;-79
2022/07/10 10:08:38;;;;;;;11.85;2.97;;;;;;;;;;5075786;28;20425;-77
2022/07/10 10:11:07;;;;;;;5.70;2.60;;;;;;;;;;5079769;28;20447;-79
2022/07/10 10:13:35;;;;;;;8.02;2.85;;;;;;;;;;5067065;28;20437;-78
2022/07/10 10:16:02;;;;;;;8.90;3.55;;;;;;;;;;5075298;28;20429;-79
2022/07/10 10:18:29;;;;;;;8.57;3.85;;;;;;;;;;5075587;28;20443;-78
2022/07/10 10:20:55;;;;;;;10.98;2.80;;;;;;;;;;5072733;28;20660;-79
2022/07/10 10:23:22;;;;;;;9.90;2.63;;;;;;;;;;5077908;28;20841;-79
2022/07/10 10:25:51;;;;;;;10.73;2.47;;;;;;;;;;5078648;28;20418;-77
2022/07/10 10:28:20;;;;;;;7.80;2.40;;;;;;;;;;5079457;28;20421;-78
2022/07/10 10:30:47;;;;;;;10.20;3.60;;;;;;;;;;5077013;28;20419;-77
2022/07/10 10:33:32;;;;;;;8.48;2.83;;;;;;;;;;5072719;28;20445;-79
2022/07/10 10:35:59;;;;;;;7.40;2.60;;;;;;;;;;5070860;28;20455;-80
2022/07/10 10:38:46;;;;;;;4.68;2.50;;;;;;;;;;5068413;28;20984;-77
2022/07/10 10:41:27;;;;;;;12.02;3.40;;;;;;;;;;5067791;28;20504;-78
2022/07/10 10:44:08;;;;;;;8.32;3.30;;;;;;;;;;5069950;28;20510;-77
2022/07/10 10:46:34;;;;;;;9.20;2.77;;;;;;;;;;5069853;28;20419;-77
2022/07/10 10:49:10;;;;;;;11.95;3.13;;;;;;;;;;5078473;28;20423;-77
2022/07/10 10:51:51;;;;;;;9.27;3.22;;;;;;;;;;5072851;28;20795;-77
2022/07/10 10:54:17;;;;;;;11.65;3.25;;;;;;;;;;5073244;28;20434;-78
2022/07/10 10:56:45;;;;;;;12.23;2.88;;;;;;;;;;5073899;28;20431;-78
2022/07/10 10:59:31;;;;;;;7.20;3.20;;;;;;;;;;5072315;28;20431;-77
2022/07/10 11:02:13;;;;;;;9.15;2.88;;;;;;;;;;5073588;28;20980;-77
2022/07/10 11:04:39;;;;;;;9.20;2.72;;;;;;;;;;5071588;28;21005;-79
2022/07/10 11:07:05;;;;;;;8.13;3.10;;;;;;;;;;5069415;28;20428;-79
2022/07/10 11:09:32;;;;;;;9.10;3.10;;;;;;;;;;5078706;28;20410;-78
2022/07/10 11:12:01;;;;;;;12.68;3.10;;;;;;;;;;5073445;28;20422;-77
2022/07/10 11:14:28;;;;;;;7.53;2.60;;;;;;;;;;5076346;28;20422;-79
2022/07/10 11:16:55;;;;;;;11.25;3.65;;;;;;;;;;5069069;28;20522;-77
2022/07/10 11:19:23;;;;;;;10.50;3.30;;;;;;;;;;5072884;28;20917;-77
2022/07/10 11:21:53;;;;;;;10.02;3.30;;;;;;;;;;5072231;28;20514;-78
2022/07/10 11:24:32;;;;;;;12.25;3.80;;;;;;;;;;5077341;28;20442;-78
2022/07/10 11:27:07;;;;;;;8.05;3.20;;;;;;;;;;5074588;28;20424;-80
2022/07/10 11:29:37;;;;;;;15.10;3.50;;;;;;;;;;5071856;28;20435;-79
2022/07/10 11:32:03;;;;;;;10.00;3.20;;;;;;;;;;5078351;28;20414;-79
2022/07/10 11:34:35;;;;;;;12.75;3.28;;;;;;;;;;5077231;28;20750;-80
2022/07/10 11:37:01;;;;;;;9.77;3.10;;;;;;;;;;5076169;28;20473;-79
2022/07/10 11:39:27;;;;;;;8.32;2.90;;;;;;;;;;5077141;28;20915;-78
2022/07/10 11:41:54;;;;;;;13.80;3.45;;;;;;;;;;5075594;28;20425;-79
2022/07/10 11:44:21;;;;;;;6.50;2.50;;;;;;;;;;5073662;28;20890;-77
2022/07/10 11:46:49;;;;;;;8.77;3.30;;;;;;;;;;5069227;28;20483;-78
2022/07/10 11:49:15;;;;;;;10.07;2.60;;;;;;;;;;5076981;28;20431;-78
2022/07/10 11:51:44;;;;;;;9.55;2.50;;;;;;;;;;5076598;28;20420;-78
2022/07/10 11:54:12;;;;;;;7.18;3.03;;;;;;;;;;5078387;28;20416;-78
2022/07/10 11:56:41;;;;;;;9.13;2.97;;;;;;;;;;5077088;28;20428;-78
2022/07/10 11:59:08;;;;;;;10.52;3.30;;;;;;;;;;5077039;28;20795;-79
2022/07/10 12:01:36;;;;;;;7.60;2.60;;;;;;;;;;5078142;28;20419;-78
2022/07/10 12:04:03;;;;;;;8.95;2.85;;;;;;;;;;5075464;28;20432;-78
2022/07/10 12:06:30;;;;;;;6.47;2.40;;;;;;;;;;5077540;28;20422;-78
2022/07/10 12:08:56;;;;;;;6.65;1.75;;;;;;;;;;5077889;28;20418;-78
2022/07/10 12:11:23;;;;;;;5.70;2.40;;;;;;;;;;5076768;28;20420;-79
2022/07/10 12:13:50;;;;;;;5.40;2.10;;;;;;;;;;5079342;28;20402;-78
2022/07/10 12:16:16;;;;;;;5.05;2.00;;;;;;;;;;5076793;28;20415;-78
2022/07/10 12:18:44;;;;;;;5.72;1.90;;;;;;;;;;5075368;28;20915;-78
2022/07/10 12:21:11;;;;;;;5.50;2.17;;;;;;;;;;5077371;28;20500;-77
2022/07/10 12:23:41;;;;;;;6.80;1.92;;;;;;;;;;5078441;28;20938;-77
2022/07/10 12:26:09;;;;;;;3.90;1.80;;;;;;;;;;5076543;28;20418;-77
2022/07/10 12:28:48;;;;;;;5.43;1.70;;;;;;;;;;5076276;22;20452;-74
2022/07/10 12:31:20;;;;;;;5.22;1.80;;;;;;;;;;5055505;28;20425;-75
2022/07/10 12:33:52;;;;;;;7.38;2.10;;;;;;;;;;5057124;28;20433;-75
2022/07/10 12:36:18;;;;;;;4.90;1.90;;;;;;;;;;5057317;28;20420;-75
2022/07/10 12:38:53;;;;;;;5.25;1.90;;;;;;;;;;5040006;28;20415;-75
2022/07/10 12:41:22;;;;;;;2.95;1.60;;;;;;;;;;5037189;28;20790;-75
2022/07/10 12:43:49;;;;;;;5.03;1.70;;;;;;;;;;5036621;28;20494;-75
2022/07/10 12:46:16;;;;;;;2.65;1.50;;;;;;;;;;5037713;28;20427;-75
2022/07/10 12:48:44;;;;;;;4.30;1.30;;;;;;;;;;5037722;28;20429;-75
2022/07/10 12:51:21;;;;;;;2.40;1.10;;;;;;;;;;5036532;28;20426;-75
2022/07/10 12:53:48;;;;;;;2.72;1.00;;;;;;;;;;5038548;28;20762;-75
2022/07/10 12:56:26;;;;;;;4.03;1.00;;;;;;;;;;5034546;28;20419;-75
2022/07/10 12:58:52;;;;;;;3.90;1.20;;;;;;;;;;5036748;28;20437;-74
2022/07/10 13:01:19;;;;;;;1.70;0.95;;;;;;;;;;5036699;28;20410;-75
2022/07/10 13:03:45;;;;;;;4.03;0.88;;;;;;;;;;5037325;28;20431;-75
2022/07/10 13:06:27;;;;;;;3.50;1.00;;;;;;;;;;5035087;28;20421;-75
2022/07/10 13:08:55;;;;;;;3.72;1.30;;;;;;;;;;5037917;28;20422;-75
2022/07/10 13:11:21;;;;;;;4.10;1.20;;;;;;;;;;5037014;28;20841;-75
2022/07/10 13:13:47;;;;;;;3.72;1.00;;;;;;;;;;5035862;28;20435;-75
2022/07/10 13:16:14;;;;;;;3.58;1.27;;;;;;;;;;5036368;28;20423;-75
2022/07/10 13:18:42;;;;;;;2.40;1.00;;;;;;;;;;5036480;28;20428;-75
2022/07/10 13:21:10;;;;;;;5.90;1.30;;;;;;;;;;5036000;28;20474;-75
2022/07/10 13:23:37;;;;;;;6.10;1.60;;;;;;;;;;5038257;28;20421;-75
2022/07/10 13:26:06;;;;;;;5.90;1.20;;;;;;;;;;5036154;28;20444;-75
2022/07/10 13:28:33;;;;;;;3.80;1.30;;;;;;;;;;5037143;28;20893;-75
2022/07/10 13:30:59;;;;;;;4.75;1.55;;;;;;;;;;5034533;28;20422;-75
2022/07/10 13:33:27;;;;;;;2.88;1.20;;;;;;;;;;5034014;28;20961;-75
2022/07/10 13:35:54;;;;;;;4.95;1.60;;;;;;;;;;5035570;28;20518;-75
2022/07/10 13:38:20;;;;;;;5.50;1.50;;;;;;;;;;5037632;28;20906;-75
2022/07/10 13:40:47;;;;;;;6.45;1.70;;;;;;;;;;5037543;28;20421;-75
2022/07/10 13:43:16;;;;;;;4.00;1.30;;;;;;;;;;5038026;28;20946;-75
2022/07/10 13:45:43;;;;;;;3.93;1.30;;;;;;;;;;5035414;28;20421;-75
2022/07/10 13:48:10;;;;;;;3.83;1.17;;;;;;;;;;5036911;28;20474;-75
2022/07/10 13:50:37;;;;;;;5.78;1.58;;;;;;;;;;5035986;28;20417;-75
2022/07/10 13:53:04;;;;;;;2.90;1.30;;;;;;;;;;5037265;28;20511;-75
2022/07/10 13:55:30;;;;;;;4.40;1.40;;;;;;;;;;5034574;28;20433;-75
2022/07/10 13:57:57;;;;;;;3.92;1.52;;;;;;;;;;5035631;28;20514;-75
2022/07/10 14:00:25;;;;;;;4.35;1.30;;;;;;;;;;5037126;28;20425;-75
2022/07/10 14:02:52;;;;;;;7.72;1.50;;;;;;;;;;5036939;28;20895;-75
2022/07/10 14:05:18;;;;;;;5.10;1.20;;;;;;;;;;5031082;28;20434;-75
2022/07/10 14:07:44;;;;;;;6.30;1.50;;;;;;;;;;5035403;28;20423;-75
2022/07/10 14:10:11;;;;;;;2.70;1.30;;;;;;;;;;5035196;28;20464;-75
2022/07/10 14:12:37;;;;;;;3.83;1.27;;;;;;;;;;5036788;28;20436;-75
2022/07/10 14:15:04;;;;;;;3.95;1.13;;;;;;;;;;5035745;28;20774;-75
2022/07/10 14:17:31;;;;;;;3.65;1.30;;;;;;;;;;5037963;28;20424;-75
2022/07/10 14:19:58;;;;;;;3.30;1.33;;;;;;;;;;5035095;28;20443;-75
2022/07/10 14:22:24;;;;;;;4.15;1.30;;;;;;;;;;5037114;28;20413;-75
2022/07/10 14:24:51;;;;;;;5.40;1.40;;;;;;;;;;5036870;28;20774;-75
2022/07/10 14:27:17;;;;;;;3.05;1.42;;;;;;;;;;5035154;28;20422;-75
2022/07/10 14:29:44;;;;;;;4.25;1.33;;;;;;;;;;5037265;28;20413;-75
2022/07/10 14:32:10;;;;;;;9.30;1.50;;;;;;;;;;5034859;28;20434;-75
2022/07/10 14:34:38;;;;;;;2.83;1.58;;;;;;;;;;5035441;28;20447;-75
2022/07/10 14:37:04;;;;;;;3.83;1.67;;;;;;;;;;5033854;28;20911;-75
2022/07/10 14:39:31;;;;;;;4.70;1.73;;;;;;;;;;5037199;28;20413;-75
2022/07/10 14:41:57;;;;;;;4.90;1.70;;;;;;;;;;5035723;28;20782;-75
2022/07/10 14:44:23;;;;;;;5.38;1.60;;;;;;;;;;5035789;28;20626;-75
2022/07/10 14:46:49;;;;;;;4.57;1.70;;;;;;;;;;5039371;28;20421;-75
2022/07/10 14:49:16;;;;;;;3.22;1.50;;;;;;;;;;5038942;28;20516;-74